Lakeview, OR (97630)

10:21 PM PDT on September 28, 2016 (GMT -0700)
Lake County | | Change Station
Active Advisory: Fire Weather Warning

Elev 4728 ft 42.16 °N, 120.40 °W | Updated 6 minutes ago

Clear
Clear
61 °F
Feels Like 61 °F
N
13
Wind Variable Wind from SSE

Today
High -- | Low -- °F
--% Chance of Precip.
Yesterday
High -- | Low -- °F
Precip. -- in
Pressure 30.07 in
Visibility 10.0 miles
Clouds Clear
Dew Point 27 °F
Humidity 27%
Rainfall 0.00 in
Snow Depth Not available.
6:55 AM 6:47 PM
Waning Crescent, 3% visible
METAR KLKV 290515Z 16011KT 10SM CLR 16/M03 A3007 RMK AO1
Pressure 30.07 in
Visibility 10.0 miles
Clouds Clear
Dew Point 27 °F
Humidity 27%
Rainfall 0.00 in
Snow Depth Not available.
6:55 AM 6:47 PM
Waning Crescent, 3% visible
METAR KLKV 290515Z 16011KT 10SM CLR 16/M03 A3007 RMK AO1

10-Day Weather Forecast

Almanac

Astronomy

Sep. 28, 2016 Rise Set
Actual Time
Civil Twilight
Nautical Twilight
Astronomical Twilight
Moon
Length of Visible Light
Length of Day
Tomorrow will be .
, % of the Moon is Illuminated

Today's Extremes

State Highs State Lows

Community

WunderPhotos

Upload Photos

1,942,445 photos uploaded!

WunderBlog® & News

Nearby

Air Quality

  Air Quality AQ Index Pollutant
Not available.

Snow Depth

Station Depth Elevation

Earthquake Activity

City Distance Mag. Time & Date
Minimum magnitude displayed is 2.5.

Coastal Water Temperatures

Place Temperature

Stations

Nearby Weather Stations

Station Location Temp. Windchill Dew Point Humidity Wind Precip. Elev Updated Type
                   

Watches & Warnings

Fire Weather Warning
Issued: 1:27 PM PDT Sep. 28, 2016 – National Weather Service

... Red flag warning in effect from 1 PM to 7 PM PDT Thursday for
strong gusty wind with low humidity for fire weather zones 285
and 624...

* impacts: strong, gusty wind with low relative humidity and high
fire danger will likely contribute to a significant spread of
any new and existing fires.

* Affected area: eastern half of fire weather zone 285 in northern
California. Southeastern portion of fire weather zone 624 in
southern Oregon.

* Counties affected: in northern CA... eastern Modoc. In south
central or... extreme southeastern Klamath and southwestern
lake.

* Wind: southwest 15 to 20 mph with gusts up to 35 mph.

* Humidity: 14 to 18 percent.

* View the hazard area in detail at http://weather.Gov/Medford/hazard

Precautionary/preparedness actions...

* a red flag warning means that critical fire weather conditions
will occur shortly.

* Strong winds and low relative humidities will cause any existing
or new fires to spread very rapidly.

* One less spark, one less wildfire.



Visit US at www.Weather.Gov/Medford